Terminal Aerodrome Forecast
Issued by NWS

Home | Current Version | Previous Version | Text Only | Print | Product List | Glossary Off
Versions: 1 2 3 4 5 6 7 8 9 10 11 12 13 14 15 16 17 18 19 20

000
FTUS43 KGRB 220929 AAA
TAFAUW
TAF AMD
KAUW 220929Z 2209/2306 28011G17KT P6SM SCT015 BKN025
      TEMPO 2209/2213 BKN015
     FM221300 30014G22KT P6SM SCT035
     FM230100 28008KT P6SM SCT050=

USA.gov is the U.S. government's official web portal to all federal, state and local government web resources and services.